메인 페이지
METAR-TAF:

METAR-TAF

공항 :

스톡홀름 알란다, 스웨덴

스톡홀름 알란다 국제공항

위도: 59-39N, 경도: 017-57E, 고도: 38m

현재 날씨관측

예보는 36분 전, 05:20시(UTC)에 발표되었습니다.
북북동5kt
온도 -5°C
습도 93%
기압 1028 hPa
시정: 5000m
고도 800ft 상공 구름 많음
고도 1200ft 상공 구름 많음
약한눈

METAR: ESSA 200520Z 03005KT 5000 -SN BKN008 BKN012 M05/M06 Q1028 R01L/19//73 R01R/19//67 R08/19//72 TEMPO BKN012

시각: 06:56 (05:56 UTC)

예보

예보는 26분 전, 05:30시(UTC)에 발표되었습니다.
예보 대상 시간: 20일 06시부터 21일 06시까지 (UTC)
4kt
시정: 7000m
고도 800ft 상공 구름 조금
고도 1700ft 상공 구름 많음
약한눈
일시적
20일 06시부터 20일 12시까지 (UTC)
시정: 3000m
고도 600ft 상공 구름 많음

TAF: ESSA 200530Z 2006/2106 01004KT 7000 -SN FEW008 BKN017 TEMPO 2006/2012 3000 BKN006

4,000개 이상의 공항 관측 자료 및 예보 (METAR 및 TAF 보고).

지도상에서 검색 가능한 기상관측소가 노란 점과 빨간 점으로 표시되어 있습니다.

기상관측소 명을 보려면 표시 위로 마우스를 이동하세요.

날씨 관측과 예보를 보려면 클릭하세요.

지도 변경 : 확대하려면 엑스 표시가 있는 녹색 버튼, 축소하려면 빼기 표시가 있는 녹색 버튼, 다음 페이지의 지도를 보려면 녹색 화살표를 클릭하세요.


METAR-TAF: